sensor_id;sensor_type;location;lat;lon;timestamp;temperature;humidity
1411;DHT22;700;51.906;8.404;2022-10-22T00:03:04;15.70;99.90
1411;DHT22;700;51.906;8.404;2022-10-22T00:08:04;15.60;99.90
1411;DHT22;700;51.906;8.404;2022-10-22T00:13:08;15.60;99.90
1411;DHT22;700;51.906;8.404;2022-10-22T00:18:09;15.50;99.90
1411;DHT22;700;51.906;8.404;2022-10-22T00:23:10;15.40;99.90
1411;DHT22;700;51.906;8.404;2022-10-22T00:28:11;15.40;99.90
1411;DHT22;700;51.906;8.404;2022-10-22T00:33:11;15.40;99.90
1411;DHT22;700;51.906;8.404;2022-10-22T00:38:12;15.40;99.90
1411;DHT22;700;51.906;8.404;2022-10-22T00:43:15;15.40;99.90
1411;DHT22;700;51.906;8.404;2022-10-22T00:48:28;15.40;99.90
1411;DHT22;700;51.906;8.404;2022-10-22T00:58:34;15.50;99.90
1411;DHT22;700;51.906;8.404;2022-10-22T01:03:38;15.40;99.90
1411;DHT22;700;51.906;8.404;2022-10-22T01:08:53;15.50;99.90
1411;DHT22;700;51.906;8.404;2022-10-22T01:14:03;15.50;99.90
1411;DHT22;700;51.906;8.404;2022-10-22T01:29:45;15.50;99.90
1411;DHT22;700;51.906;8.404;2022-10-22T01:35:03;15.50;99.90
1411;DHT22;700;51.906;8.404;2022-10-22T01:40:06;15.50;99.90
1411;DHT22;700;51.906;8.404;2022-10-22T01:45:13;15.60;99.90
1411;DHT22;700;51.906;8.404;2022-10-22T01:50:31;15.60;99.90
1411;DHT22;700;51.906;8.404;2022-10-22T02:00:50;15.60;99.90
1411;DHT22;700;51.906;8.404;2022-10-22T02:06:01;15.60;99.90
1411;DHT22;700;51.906;8.404;2022-10-22T02:11:10;15.40;99.90
1411;DHT22;700;51.906;8.404;2022-10-22T02:16:17;15.40;99.90
1411;DHT22;700;51.906;8.404;2022-10-22T02:21:18;15.50;99.90
1411;DHT22;700;51.906;8.404;2022-10-22T02:26:39;15.40;99.90
1411;DHT22;700;51.906;8.404;2022-10-22T02:31:44;15.40;99.90
1411;DHT22;700;51.906;8.404;2022-10-22T02:36:46;15.30;99.90
1411;DHT22;700;51.906;8.404;2022-10-22T02:41:47;15.20;99.90
1411;DHT22;700;51.906;8.404;2022-10-22T02:46:49;15.10;99.90
1411;DHT22;700;51.906;8.404;2022-10-22T02:51:50;15.30;99.90
1411;DHT22;700;51.906;8.404;2022-10-22T02:56:50;15.10;99.90
1411;DHT22;700;51.906;8.404;2022-10-22T03:01:51;15.10;99.90
1411;DHT22;700;51.906;8.404;2022-10-22T03:06:51;14.80;99.90
1411;DHT22;700;51.906;8.404;2022-10-22T03:11:52;14.90;99.90
1411;DHT22;700;51.906;8.404;2022-10-22T03:16:53;15.00;99.90
1411;DHT22;700;51.906;8.404;2022-10-22T03:22:00;15.00;99.90
1411;DHT22;700;51.906;8.404;2022-10-22T03:27:01;15.00;99.90
1411;DHT22;700;51.906;8.404;2022-10-22T03:32:02;15.00;99.90
1411;DHT22;700;51.906;8.404;2022-10-22T03:37:05;15.00;99.90
1411;DHT22;700;51.906;8.404;2022-10-22T03:42:06;15.10;99.90
1411;DHT22;700;51.906;8.404;2022-10-22T03:47:08;15.10;99.90
1411;DHT22;700;51.906;8.404;2022-10-22T03:52:13;15.00;99.90
1411;DHT22;700;51.906;8.404;2022-10-22T03:57:14;15.10;99.90
1411;DHT22;700;51.906;8.404;2022-10-22T04:02:15;15.00;99.90
1411;DHT22;700;51.906;8.404;2022-10-22T04:07:21;14.90;99.90
1411;DHT22;700;51.906;8.404;2022-10-22T04:12:24;14.90;99.90
1411;DHT22;700;51.906;8.404;2022-10-22T04:17:35;15.00;99.90
1411;DHT22;700;51.906;8.404;2022-10-22T04:22:36;14.90;99.90
1411;DHT22;700;51.906;8.404;2022-10-22T04:27:39;15.00;99.90
1411;DHT22;700;51.906;8.404;2022-10-22T04:32:40;14.70;99.90
1411;DHT22;700;51.906;8.404;2022-10-22T04:37:42;14.60;99.90
1411;DHT22;700;51.906;8.404;2022-10-22T04:42:46;14.70;99.90
1411;DHT22;700;51.906;8.404;2022-10-22T04:47:46;14.80;99.90
1411;DHT22;700;51.906;8.404;2022-10-22T04:52:47;14.80;99.90
1411;DHT22;700;51.906;8.404;2022-10-22T04:57:47;14.90;99.90
1411;DHT22;700;51.906;8.404;2022-10-22T05:02:49;14.90;99.90
1411;DHT22;700;51.906;8.404;2022-10-22T05:07:50;14.90;99.90
1411;DHT22;700;51.906;8.404;2022-10-22T05:12:53;14.90;99.90
1411;DHT22;700;51.906;8.404;2022-10-22T05:17:58;14.90;99.90
1411;DHT22;700;51.906;8.404;2022-10-22T05:23:02;14.80;99.90
1411;DHT22;700;51.906;8.404;2022-10-22T05:28:02;14.90;99.90
1411;DHT22;700;51.906;8.404;2022-10-22T05:33:03;14.80;99.90
1411;DHT22;700;51.906;8.404;2022-10-22T05:38:04;14.80;99.90
1411;DHT22;700;51.906;8.404;2022-10-22T05:43:08;14.80;99.90
1411;DHT22;700;51.906;8.404;2022-10-22T05:48:09;14.80;99.90
1411;DHT22;700;51.906;8.404;2022-10-22T05:53:10;14.80;99.90
1411;DHT22;700;51.906;8.404;2022-10-22T05:58:12;14.80;99.90
1411;DHT22;700;51.906;8.404;2022-10-22T06:03:15;14.80;99.90
1411;DHT22;700;51.906;8.404;2022-10-22T06:08:16;14.50;99.90
1411;DHT22;700;51.906;8.404;2022-10-22T06:13:20;14.40;99.90
1411;DHT22;700;51.906;8.404;2022-10-22T06:18:24;14.60;99.90
1411;DHT22;700;51.906;8.404;2022-10-22T06:23:25;14.60;99.90
1411;DHT22;700;51.906;8.404;2022-10-22T06:28:28;14.70;99.90
1411;DHT22;700;51.906;8.404;2022-10-22T06:33:31;14.80;99.90
1411;DHT22;700;51.906;8.404;2022-10-22T06:38:33;14.70;99.90
1411;DHT22;700;51.906;8.404;2022-10-22T06:43:34;14.80;99.90
1411;DHT22;700;51.906;8.404;2022-10-22T06:48:35;14.60;99.90
1411;DHT22;700;51.906;8.404;2022-10-22T06:53:39;14.70;99.90
1411;DHT22;700;51.906;8.404;2022-10-22T06:58:42;14.80;99.90
1411;DHT22;700;51.906;8.404;2022-10-22T07:03:46;15.00;99.90
1411;DHT22;700;51.906;8.404;2022-10-22T07:08:46;15.10;99.90
1411;DHT22;700;51.906;8.404;2022-10-22T07:13:50;15.20;99.90
1411;DHT22;700;51.906;8.404;2022-10-22T07:18:55;15.40;99.90
1411;DHT22;700;51.906;8.404;2022-10-22T07:23:56;15.60;99.90
1411;DHT22;700;51.906;8.404;2022-10-22T07:28:59;15.70;99.90
1411;DHT22;700;51.906;8.404;2022-10-22T07:34:03;15.80;99.90
1411;DHT22;700;51.906;8.404;2022-10-22T07:39:06;15.90;99.90
1411;DHT22;700;51.906;8.404;2022-10-22T07:44:06;16.00;99.90
1411;DHT22;700;51.906;8.404;2022-10-22T07:49:09;16.20;99.90
1411;DHT22;700;51.906;8.404;2022-10-22T07:54:12;16.70;99.90
1411;DHT22;700;51.906;8.404;2022-10-22T07:59:15;17.00;99.90
1411;DHT22;700;51.906;8.404;2022-10-22T08:04:16;17.40;99.90
1411;DHT22;700;51.906;8.404;2022-10-22T08:09:19;17.70;99.90
1411;DHT22;700;51.906;8.404;2022-10-22T08:14:22;17.80;99.90
1411;DHT22;700;51.906;8.404;2022-10-22T08:19:25;18.20;99.90
1411;DHT22;700;51.906;8.404;2022-10-22T08:24:31;19.30;99.90
1411;DHT22;700;51.906;8.404;2022-10-22T08:29:32;19.70;99.90
1411;DHT22;700;51.906;8.404;2022-10-22T08:34:32;20.10;99.90
1411;DHT22;700;51.906;8.404;2022-10-22T08:39:33;20.60;99.90
1411;DHT22;700;51.906;8.404;2022-10-22T08:44:53;21.60;99.90
1411;DHT22;700;51.906;8.404;2022-10-22T08:50:00;23.20;99.90
1411;DHT22;700;51.906;8.404;2022-10-22T08:55:01;24.60;99.90
1411;DHT22;700;51.906;8.404;2022-10-22T09:00:51;24.10;99.90
1411;DHT22;700;51.906;8.404;2022-10-22T09:10:50;24.60;99.90
1411;DHT22;700;51.906;8.404;2022-10-22T09:15:59;23.40;99.90
1411;DHT22;700;51.906;8.404;2022-10-22T09:26:16;28.30;99.90
1411;DHT22;700;51.906;8.404;2022-10-22T09:31:17;29.80;99.90
1411;DHT22;700;51.906;8.404;2022-10-22T09:36:21;31.60;98.00
1411;DHT22;700;51.906;8.404;2022-10-22T09:41:29;33.10;92.80
1411;DHT22;700;51.906;8.404;2022-10-22T09:46:38;31.20;91.70
1411;DHT22;700;51.906;8.404;2022-10-22T09:51:57;30.10;92.70
1411;DHT22;700;51.906;8.404;2022-10-22T10:02:22;25.70;98.80
1411;DHT22;700;51.906;8.404;2022-10-22T10:07:29;26.20;99.90
1411;DHT22;700;51.906;8.404;2022-10-22T10:40:18;26.00;99.90
1411;DHT22;700;51.906;8.404;2022-10-22T11:06:59;21.20;99.90
1411;DHT22;700;51.906;8.404;2022-10-22T11:12:09;20.80;99.90
1411;DHT22;700;51.906;8.404;2022-10-22T11:17:16;20.90;99.90
1411;DHT22;700;51.906;8.404;2022-10-22T11:22:28;20.10;99.90
1411;DHT22;700;51.906;8.404;2022-10-22T11:32:59;20.90;99.90
1411;DHT22;700;51.906;8.404;2022-10-22T11:38:04;21.70;99.90
1411;DHT22;700;51.906;8.404;2022-10-22T11:43:10;22.20;99.90
1411;DHT22;700;51.906;8.404;2022-10-22T11:48:27;22.50;99.90
1411;DHT22;700;51.906;8.404;2022-10-22T11:53:36;22.90;99.90
1411;DHT22;700;51.906;8.404;2022-10-22T12:09:00;21.60;99.90
1411;DHT22;700;51.906;8.404;2022-10-22T12:24:24;19.80;99.90
1411;DHT22;700;51.906;8.404;2022-10-22T12:29:25;19.70;99.90
1411;DHT22;700;51.906;8.404;2022-10-22T12:34:28;19.60;99.90
1411;DHT22;700;51.906;8.404;2022-10-22T12:39:28;19.70;99.90
1411;DHT22;700;51.906;8.404;2022-10-22T12:44:31;19.50;99.90
1411;DHT22;700;51.906;8.404;2022-10-22T12:49:44;19.70;99.90
1411;DHT22;700;51.906;8.404;2022-10-22T12:54:49;20.10;99.90
1411;DHT22;700;51.906;8.404;2022-10-22T12:59:51;20.50;99.90
1411;DHT22;700;51.906;8.404;2022-10-22T13:05:20;20.40;99.90
1411;DHT22;700;51.906;8.404;2022-10-22T13:10:26;20.70;99.90
1411;DHT22;700;51.906;8.404;2022-10-22T13:20:31;20.50;99.90
1411;DHT22;700;51.906;8.404;2022-10-22T13:25:37;20.10;99.90
1411;DHT22;700;51.906;8.404;2022-10-22T13:30:53;20.10;99.90
1411;DHT22;700;51.906;8.404;2022-10-22T13:35:55;20.50;99.90
1411;DHT22;700;51.906;8.404;2022-10-22T13:40:56;20.60;99.90
1411;DHT22;700;51.906;8.404;2022-10-22T13:46:00;21.20;99.90
1411;DHT22;700;51.906;8.404;2022-10-22T13:51:00;21.40;99.90
1411;DHT22;700;51.906;8.404;2022-10-22T13:56:03;21.30;99.90
1411;DHT22;700;51.906;8.404;2022-10-22T14:06:21;20.50;99.90
1411;DHT22;700;51.906;8.404;2022-10-22T14:11:22;20.60;99.90
1411;DHT22;700;51.906;8.404;2022-10-22T14:16:25;20.00;99.90
1411;DHT22;700;51.906;8.404;2022-10-22T14:21:34;19.90;99.90
1411;DHT22;700;51.906;8.404;2022-10-22T14:26:35;19.70;99.90
1411;DHT22;700;51.906;8.404;2022-10-22T14:31:37;19.70;99.90
1411;DHT22;700;51.906;8.404;2022-10-22T14:36:38;19.70;99.90
1411;DHT22;700;51.906;8.404;2022-10-22T14:41:39;19.70;99.90
1411;DHT22;700;51.906;8.404;2022-10-22T14:46:42;19.70;99.90
1411;DHT22;700;51.906;8.404;2022-10-22T14:51:43;19.90;99.90
1411;DHT22;700;51.906;8.404;2022-10-22T14:56:44;19.80;99.90
1411;DHT22;700;51.906;8.404;2022-10-22T15:01:46;19.80;99.90
1411;DHT22;700;51.906;8.404;2022-10-22T15:06:47;19.40;99.90
1411;DHT22;700;51.906;8.404;2022-10-22T15:11:48;19.50;99.90
1411;DHT22;700;51.906;8.404;2022-10-22T15:16:49;19.40;99.90
1411;DHT22;700;51.906;8.404;2022-10-22T15:21:49;19.50;99.90
1411;DHT22;700;51.906;8.404;2022-10-22T15:26:53;19.70;99.90
1411;DHT22;700;51.906;8.404;2022-10-22T15:31:57;19.60;99.90
1411;DHT22;700;51.906;8.404;2022-10-22T15:37:01;19.40;99.90
1411;DHT22;700;51.906;8.404;2022-10-22T15:42:02;19.50;99.90
1411;DHT22;700;51.906;8.404;2022-10-22T15:47:05;19.10;99.90
1411;DHT22;700;51.906;8.404;2022-10-22T15:52:06;19.20;99.90
1411;DHT22;700;51.906;8.404;2022-10-22T15:57:08;19.20;99.90
1411;DHT22;700;51.906;8.404;2022-10-22T16:02:10;19.10;99.90
1411;DHT22;700;51.906;8.404;2022-10-22T16:07:13;19.00;99.90
1411;DHT22;700;51.906;8.404;2022-10-22T16:12:14;18.80;99.90
1411;DHT22;700;51.906;8.404;2022-10-22T16:17:17;19.00;99.90
1411;DHT22;700;51.906;8.404;2022-10-22T16:22:18;18.80;99.90
1411;DHT22;700;51.906;8.404;2022-10-22T16:27:18;19.00;99.90
1411;DHT22;700;51.906;8.404;2022-10-22T16:32:19;18.80;99.90
1411;DHT22;700;51.906;8.404;2022-10-22T16:37:22;19.00;99.90
1411;DHT22;700;51.906;8.404;2022-10-22T16:42:26;18.90;99.90
1411;DHT22;700;51.906;8.404;2022-10-22T16:47:27;18.90;99.90
1411;DHT22;700;51.906;8.404;2022-10-22T16:52:27;18.70;99.90
1411;DHT22;700;51.906;8.404;2022-10-22T16:57:33;18.80;99.90
1411;DHT22;700;51.906;8.404;2022-10-22T17:02:36;18.50;99.90
1411;DHT22;700;51.906;8.404;2022-10-22T17:07:37;18.40;99.90
1411;DHT22;700;51.906;8.404;2022-10-22T17:12:37;18.30;99.90
1411;DHT22;700;51.906;8.404;2022-10-22T17:17:38;18.30;99.90
1411;DHT22;700;51.906;8.404;2022-10-22T17:22:39;18.00;99.90
1411;DHT22;700;51.906;8.404;2022-10-22T17:27:41;18.00;99.90
1411;DHT22;700;51.906;8.404;2022-10-22T17:32:42;17.90;99.90
1411;DHT22;700;51.906;8.404;2022-10-22T17:37:43;17.70;99.90
1411;DHT22;700;51.906;8.404;2022-10-22T17:42:46;17.70;99.90
1411;DHT22;700;51.906;8.404;2022-10-22T17:47:49;17.40;99.90
1411;DHT22;700;51.906;8.404;2022-10-22T17:52:53;17.40;99.90
1411;DHT22;700;51.906;8.404;2022-10-22T17:57:54;17.30;99.90
1411;DHT22;700;51.906;8.404;2022-10-22T18:02:55;17.10;99.90
1411;DHT22;700;51.906;8.404;2022-10-22T18:07:56;17.10;99.90
1411;DHT22;700;51.906;8.404;2022-10-22T18:12:59;16.80;99.90
1411;DHT22;700;51.906;8.404;2022-10-22T18:17:59;16.60;99.90
1411;DHT22;700;51.906;8.404;2022-10-22T18:23:02;16.70;99.90
1411;DHT22;700;51.906;8.404;2022-10-22T18:28:04;16.50;99.90
1411;DHT22;700;51.906;8.404;2022-10-22T18:33:04;16.40;99.90
1411;DHT22;700;51.906;8.404;2022-10-22T18:38:05;16.20;99.90
1411;DHT22;700;51.906;8.404;2022-10-22T18:43:08;16.10;99.90
1411;DHT22;700;51.906;8.404;2022-10-22T18:48:09;15.80;99.90
1411;DHT22;700;51.906;8.404;2022-10-22T18:53:13;15.60;99.90
1411;DHT22;700;51.906;8.404;2022-10-22T18:58:14;15.50;99.90
1411;DHT22;700;51.906;8.404;2022-10-22T19:03:17;15.50;99.90
1411;DHT22;700;51.906;8.404;2022-10-22T19:08:18;15.30;99.90
1411;DHT22;700;51.906;8.404;2022-10-22T19:13:22;15.30;99.90
1411;DHT22;700;51.906;8.404;2022-10-22T19:18:24;15.30;99.90
1411;DHT22;700;51.906;8.404;2022-10-22T19:23:26;15.30;99.90
1411;DHT22;700;51.906;8.404;2022-10-22T19:28:29;15.20;99.90
1411;DHT22;700;51.906;8.404;2022-10-22T19:33:30;15.20;99.90
1411;DHT22;700;51.906;8.404;2022-10-22T19:38:34;15.00;99.90
1411;DHT22;700;51.906;8.404;2022-10-22T19:43:39;15.10;99.90
1411;DHT22;700;51.906;8.404;2022-10-22T19:48:40;14.90;99.90
1411;DHT22;700;51.906;8.404;2022-10-22T19:53:40;14.90;99.90
1411;DHT22;700;51.906;8.404;2022-10-22T19:58:41;14.90;99.90
1411;DHT22;700;51.906;8.404;2022-10-22T20:03:44;14.80;99.90
1411;DHT22;700;51.906;8.404;2022-10-22T20:08:45;14.70;99.90
1411;DHT22;700;51.906;8.404;2022-10-22T20:13:46;14.60;99.90
1411;DHT22;700;51.906;8.404;2022-10-22T20:18:49;14.60;99.90
1411;DHT22;700;51.906;8.404;2022-10-22T20:23:55;14.60;99.90
1411;DHT22;700;51.906;8.404;2022-10-22T20:28:59;14.50;99.90
1411;DHT22;700;51.906;8.404;2022-10-22T20:34:00;14.60;99.90
1411;DHT22;700;51.906;8.404;2022-10-22T20:39:03;14.50;99.90
1411;DHT22;700;51.906;8.404;2022-10-22T20:44:08;14.50;99.90
1411;DHT22;700;51.906;8.404;2022-10-22T20:49:13;14.50;99.90
1411;DHT22;700;51.906;8.404;2022-10-22T20:54:14;14.40;99.90
1411;DHT22;700;51.906;8.404;2022-10-22T20:59:15;14.40;99.90
1411;DHT22;700;51.906;8.404;2022-10-22T21:04:17;14.30;99.90
1411;DHT22;700;51.906;8.404;2022-10-22T21:09:19;14.30;99.90
1411;DHT22;700;51.906;8.404;2022-10-22T21:14:22;14.20;99.90
1411;DHT22;700;51.906;8.404;2022-10-22T21:19:22;14.10;99.90
1411;DHT22;700;51.906;8.404;2022-10-22T21:24:23;13.90;99.90
1411;DHT22;700;51.906;8.404;2022-10-22T21:29:27;13.80;99.90
1411;DHT22;700;51.906;8.404;2022-10-22T21:34:28;13.90;99.90
1411;DHT22;700;51.906;8.404;2022-10-22T21:39:29;13.90;99.90
1411;DHT22;700;51.906;8.404;2022-10-22T21:44:30;13.90;99.90
1411;DHT22;700;51.906;8.404;2022-10-22T21:49:30;13.80;99.90
1411;DHT22;700;51.906;8.404;2022-10-22T21:54:33;13.70;99.90
1411;DHT22;700;51.906;8.404;2022-10-22T21:59:37;13.80;99.90
1411;DHT22;700;51.906;8.404;2022-10-22T22:04:38;13.90;99.90
1411;DHT22;700;51.906;8.404;2022-10-22T22:09:41;14.00;99.90
1411;DHT22;700;51.906;8.404;2022-10-22T22:14:44;14.10;99.90
1411;DHT22;700;51.906;8.404;2022-10-22T22:19:45;14.10;99.90
1411;DHT22;700;51.906;8.404;2022-10-22T22:24:45;14.20;99.90
1411;DHT22;700;51.906;8.404;2022-10-22T22:29:46;14.20;99.90
1411;DHT22;700;51.906;8.404;2022-10-22T22:34:49;14.20;99.90
1411;DHT22;700;51.906;8.404;2022-10-22T22:39:50;14.20;99.90
1411;DHT22;700;51.906;8.404;2022-10-22T22:44:50;14.20;99.90
1411;DHT22;700;51.906;8.404;2022-10-22T22:49:51;14.30;99.90
1411;DHT22;700;51.906;8.404;2022-10-22T22:54:51;14.40;99.90
1411;DHT22;700;51.906;8.404;2022-10-22T22:59:52;14.60;99.90
1411;DHT22;700;51.906;8.404;2022-10-22T23:04:55;14.60;99.90
1411;DHT22;700;51.906;8.404;2022-10-22T23:09:56;14.60;99.90
1411;DHT22;700;51.906;8.404;2022-10-22T23:14:56;14.60;99.90
1411;DHT22;700;51.906;8.404;2022-10-22T23:20:01;14.40;99.90
1411;DHT22;700;51.906;8.404;2022-10-22T23:25:02;14.40;99.90
1411;DHT22;700;51.906;8.404;2022-10-22T23:30:03;14.30;99.90
1411;DHT22;700;51.906;8.404;2022-10-22T23:35:04;14.40;99.90
1411;DHT22;700;51.906;8.404;2022-10-22T23:40:07;14.60;99.90
1411;DHT22;700;51.906;8.404;2022-10-22T23:45:08;14.60;99.90
1411;DHT22;700;51.906;8.404;2022-10-22T23:50:11;14.50;99.90
1411;DHT22;700;51.906;8.404;2022-10-22T23:55:12;14.50;99.90
